sensor_id;sensor_type;location;lat;lon;timestamp;pressure;altitude;pressure_sealevel;temperature;humidity
51249;BME280;39642;47.556;18.728;2024-02-21T00:02:18;100380.03;;;22.46;32.74
51249;BME280;39642;47.556;18.728;2024-02-21T00:04:44;100381.00;;;22.45;33.03
51249;BME280;39642;47.556;18.728;2024-02-21T00:07:10;100384.50;;;22.45;32.81
51249;BME280;39642;47.556;18.728;2024-02-21T00:09:35;100373.97;;;22.44;32.78
51249;BME280;39642;47.556;18.728;2024-02-21T00:12:01;100382.00;;;22.42;32.75
51249;BME280;39642;47.556;18.728;2024-02-21T00:14:28;100374.91;;;22.43;32.69
51249;BME280;39642;47.556;18.728;2024-02-21T00:16:54;100375.78;;;22.43;32.66
51249;BME280;39642;47.556;18.728;2024-02-21T00:19:20;100366.00;;;22.44;32.74
51249;BME280;39642;47.556;18.728;2024-02-21T00:21:46;100366.84;;;22.44;32.74
51249;BME280;39642;47.556;18.728;2024-02-21T00:24:12;100369.50;;;22.44;32.74
51249;BME280;39642;47.556;18.728;2024-02-21T00:26:38;100364.12;;;22.46;32.68
51249;BME280;39642;47.556;18.728;2024-02-21T00:29:04;100360.50;;;22.47;33.08
51249;BME280;39642;47.556;18.728;2024-02-21T00:31:31;100357.78;;;22.49;32.64
51249;BME280;39642;47.556;18.728;2024-02-21T00:33:56;100354.97;;;22.52;33.03
51249;BME280;39642;47.556;18.728;2024-02-21T00:36:23;100351.34;;;22.53;32.85
51249;BME280;39642;47.556;18.728;2024-02-21T00:38:49;100348.69;;;22.53;33.04
51249;BME280;39642;47.556;18.728;2024-02-21T00:41:15;100350.50;;;22.52;33.07
51249;BME280;39642;47.556;18.728;2024-02-21T00:43:41;100355.69;;;22.54;33.12
51249;BME280;39642;47.556;18.728;2024-02-21T00:46:08;100350.41;;;22.54;32.93
51249;BME280;39642;47.556;18.728;2024-02-21T00:48:34;100349.53;;;22.53;33.00
51249;BME280;39642;47.556;18.728;2024-02-21T00:51:00;100347.75;;;22.54;32.78
51249;BME280;39642;47.556;18.728;2024-02-21T00:53:25;100346.88;;;22.53;33.03
51249;BME280;39642;47.556;18.728;2024-02-21T00:55:51;100345.09;;;22.54;32.72
51249;BME280;39642;47.556;18.728;2024-02-21T00:58:17;100341.69;;;22.52;33.01
51249;BME280;39642;47.556;18.728;2024-02-21T01:00:43;100338.09;;;22.53;32.89
51249;BME280;39642;47.556;18.728;2024-02-21T01:03:09;100335.44;;;22.53;32.89
51249;BME280;39642;47.556;18.728;2024-02-21T01:05:35;100336.38;;;22.52;33.06
51249;BME280;39642;47.556;18.728;2024-02-21T01:08:01;100339.03;;;22.52;32.86
51249;BME280;39642;47.556;18.728;2024-02-21T01:10:27;100337.31;;;22.51;32.86
51249;BME280;39642;47.556;18.728;2024-02-21T01:12:53;100327.53;;;22.51;32.73
51249;BME280;39642;47.556;18.728;2024-02-21T01:15:19;100330.19;;;22.51;32.84
51249;BME280;39642;47.556;18.728;2024-02-21T01:17:44;100339.03;;;22.52;32.86
51249;BME280;39642;47.556;18.728;2024-02-21T01:20:11;100332.84;;;22.51;32.85
51249;BME280;39642;47.556;18.728;2024-02-21T01:22:37;100332.84;;;22.51;32.77
51249;BME280;39642;47.556;18.728;2024-02-21T01:25:03;100330.31;;;22.50;32.36
51249;BME280;39642;47.556;18.728;2024-02-21T01:27:28;100326.88;;;22.48;32.28
51249;BME280;39642;47.556;18.728;2024-02-21T01:29:54;100333.13;;;22.47;32.32
51249;BME280;39642;47.556;18.728;2024-02-21T01:32:21;100329.63;;;22.46;32.36
51249;BME280;39642;47.556;18.728;2024-02-21T01:34:50;100330.56;;;22.45;32.33
51249;BME280;39642;47.556;18.728;2024-02-21T01:37:16;100325.28;;;22.45;32.37
51249;BME280;39642;47.556;18.728;2024-02-21T01:39:42;100319.00;;;22.46;32.29
51249;BME280;39642;47.556;18.728;2024-02-21T01:42:08;100321.75;;;22.44;32.21
51249;BME280;39642;47.556;18.728;2024-02-21T01:44:34;100320.03;;;22.43;32.21
51249;BME280;39642;47.556;18.728;2024-02-21T01:47:02;100323.75;;;22.41;32.29
51249;BME280;39642;47.556;18.728;2024-02-21T01:49:28;100315.00;;;22.39;32.25
51249;BME280;39642;47.556;18.728;2024-02-21T01:51:54;100308.75;;;22.40;32.25
51249;BME280;39642;47.556;18.728;2024-02-21T01:54:20;100309.62;;;22.40;32.37
51249;BME280;39642;47.556;18.728;2024-02-21T01:56:46;100304.31;;;22.40;32.33
51249;BME280;39642;47.556;18.728;2024-02-21T01:59:15;100296.25;;;22.42;32.11
51249;BME280;39642;47.556;18.728;2024-02-21T02:01:42;100292.75;;;22.41;32.15
51249;BME280;39642;47.556;18.728;2024-02-21T02:04:08;100286.66;;;22.39;32.03
51249;BME280;39642;47.556;18.728;2024-02-21T02:06:34;100284.97;;;22.38;32.11
51249;BME280;39642;47.556;18.728;2024-02-21T02:09:00;100287.63;;;22.38;32.11
51249;BME280;39642;47.556;18.728;2024-02-21T02:11:26;100279.66;;;22.38;32.10
51249;BME280;39642;47.556;18.728;2024-02-21T02:13:52;100287.63;;;22.38;31.99
51249;BME280;39642;47.556;18.728;2024-02-21T02:16:18;100281.56;;;22.36;31.99
51249;BME280;39642;47.556;18.728;2024-02-21T02:18:44;100283.31;;;22.36;32.04
51249;BME280;39642;47.556;18.728;2024-02-21T02:21:44;100288.63;;;22.36;32.27
51249;BME280;39642;47.556;18.728;2024-02-21T02:24:12;100280.59;;;22.37;31.96
51249;BME280;39642;47.556;18.728;2024-02-21T02:26:39;100285.06;;;22.37;31.98
51249;BME280;39642;47.556;18.728;2024-02-21T02:29:05;100283.25;;;22.37;31.88
51249;BME280;39642;47.556;18.728;2024-02-21T02:31:31;100283.25;;;22.37;31.79
51249;BME280;39642;47.556;18.728;2024-02-21T02:33:57;100278.91;;;22.36;31.76
51249;BME280;39642;47.556;18.728;2024-02-21T02:36:23;100275.28;;;22.37;32.02
51249;BME280;39642;47.556;18.728;2024-02-21T02:38:49;100281.63;;;22.35;31.70
51249;BME280;39642;47.556;18.728;2024-02-21T02:41:15;100277.16;;;22.35;31.63
51249;BME280;39642;47.556;18.728;2024-02-21T02:43:41;100271.03;;;22.35;31.83
51249;BME280;39642;47.556;18.728;2024-02-21T02:46:07;100280.59;;;22.37;31.76
51249;BME280;39642;47.556;18.728;2024-02-21T02:48:33;100273.59;;;22.36;31.52
51249;BME280;39642;47.556;18.728;2024-02-21T02:50:58;100272.72;;;22.36;31.54
51249;BME280;39642;47.556;18.728;2024-02-21T02:53:24;100278.78;;;22.38;31.37
51249;BME280;39642;47.556;18.728;2024-02-21T02:55:50;100281.44;;;22.38;31.34
51249;BME280;39642;47.556;18.728;2024-02-21T02:58:16;100284.09;;;22.38;31.46
51249;BME280;39642;47.556;18.728;2024-02-21T03:00:42;100288.56;;;22.37;31.54
51249;BME280;39642;47.556;18.728;2024-02-21T03:03:08;100288.56;;;22.37;31.40
51249;BME280;39642;47.556;18.728;2024-02-21T03:05:34;100289.50;;;22.36;31.33
51249;BME280;39642;47.556;18.728;2024-02-21T03:08:00;100290.44;;;22.35;31.48
51249;BME280;39642;47.556;18.728;2024-02-21T03:10:26;100299.25;;;22.36;31.35
51249;BME280;39642;47.556;18.728;2024-02-21T03:12:51;100292.16;;;22.36;31.32
51249;BME280;39642;47.556;18.728;2024-02-21T03:15:19;100302.94;;;22.33;31.30
51249;BME280;39642;47.556;18.728;2024-02-21T03:17:44;100295.84;;;22.34;31.37
51249;BME280;39642;47.556;18.728;2024-02-21T03:20:11;100297.63;;;22.33;31.37
51249;BME280;39642;47.556;18.728;2024-02-21T03:22:37;100299.44;;;22.33;31.56
51249;BME280;39642;47.556;18.728;2024-02-21T03:25:03;100309.97;;;22.34;31.74
51249;BME280;39642;47.556;18.728;2024-02-21T03:27:29;100301.06;;;22.35;31.55
51249;BME280;39642;47.556;18.728;2024-02-21T03:29:55;100302.78;;;22.36;31.39
51249;BME280;39642;47.556;18.728;2024-02-21T03:32:21;100302.84;;;22.35;31.45
51249;BME280;39642;47.556;18.728;2024-02-21T03:34:47;100309.97;;;22.34;31.34
51249;BME280;39642;47.556;18.728;2024-02-21T03:37:13;100317.09;;;22.34;31.78
51249;BME280;39642;47.556;18.728;2024-02-21T03:39:40;100317.09;;;22.34;31.82
51249;BME280;39642;47.556;18.728;2024-02-21T03:42:06;100318.78;;;22.35;31.28
51249;BME280;39642;47.556;18.728;2024-02-21T03:44:32;100317.09;;;22.34;31.48
51249;BME280;39642;47.556;18.728;2024-02-21T03:47:01;100315.34;;;22.33;31.25
51249;BME280;39642;47.556;18.728;2024-02-21T03:49:27;100310.03;;;22.33;31.22
51249;BME280;39642;47.556;18.728;2024-02-21T03:51:53;100312.69;;;22.33;31.28
51249;BME280;39642;47.556;18.728;2024-02-21T03:54:19;100318.84;;;22.33;31.16
51249;BME280;39642;47.556;18.728;2024-02-21T03:56:45;100317.94;;;22.34;31.13
51249;BME280;39642;47.556;18.728;2024-02-21T03:59:13;100322.28;;;22.35;31.13
51249;BME280;39642;47.556;18.728;2024-02-21T04:01:39;100320.38;;;22.37;31.10
51249;BME280;39642;47.556;18.728;2024-02-21T04:04:05;100325.78;;;22.36;31.10
51249;BME280;39642;47.556;18.728;2024-02-21T04:06:31;100316.97;;;22.35;31.50
51249;BME280;39642;47.556;18.728;2024-02-21T04:08:57;100319.47;;;22.38;31.28
51249;BME280;39642;47.556;18.728;2024-02-21T04:11:23;100316.88;;;22.37;31.06
51249;BME280;39642;47.556;18.728;2024-02-21T04:13:49;100314.25;;;22.37;31.06
51249;BME280;39642;47.556;18.728;2024-02-21T04:16:16;100322.19;;;22.37;31.03
51249;BME280;39642;47.556;18.728;2024-02-21T04:18:42;100317.94;;;22.34;31.05
51249;BME280;39642;47.556;18.728;2024-02-21T04:21:09;100325.88;;;22.34;31.33
51249;BME280;39642;47.556;18.728;2024-02-21T04:23:35;100322.37;;;22.34;31.19
51249;BME280;39642;47.556;18.728;2024-02-21T04:26:01;100324.09;;;22.35;31.12
51249;BME280;39642;47.556;18.728;2024-02-21T04:28:27;100319.63;;;22.35;31.24
51249;BME280;39642;47.556;18.728;2024-02-21T04:30:53;100315.28;;;22.34;31.17
51249;BME280;39642;47.556;18.728;2024-02-21T04:33:18;100314.50;;;22.32;31.11
51249;BME280;39642;47.556;18.728;2024-02-21T04:35:44;100311.84;;;22.32;31.37
51249;BME280;39642;47.556;18.728;2024-02-21T04:38:10;100309.19;;;22.32;31.16
51249;BME280;39642;47.556;18.728;2024-02-21T04:40:36;100312.78;;;22.31;31.24
51249;BME280;39642;47.556;18.728;2024-02-21T04:43:02;100308.44;;;22.30;31.15
51249;BME280;39642;47.556;18.728;2024-02-21T04:45:28;100301.44;;;22.29;31.29
51249;BME280;39642;47.556;18.728;2024-02-21T04:47:54;100303.19;;;22.29;31.20
51249;BME280;39642;47.556;18.728;2024-02-21T04:50:20;100305.84;;;22.29;31.30
51249;BME280;39642;47.556;18.728;2024-02-21T04:52:46;100303.12;;;22.30;31.27
51249;BME280;39642;47.556;18.728;2024-02-21T04:55:12;100311.09;;;22.30;31.27
51249;BME280;39642;47.556;18.728;2024-02-21T04:57:38;100297.06;;;22.28;31.21
51249;BME280;39642;47.556;18.728;2024-02-21T05:00:05;100302.34;;;22.28;31.24
51249;BME280;39642;47.556;18.728;2024-02-21T05:02:31;100293.47;;;22.29;31.22
51249;BME280;39642;47.556;18.728;2024-02-21T05:04:57;100292.50;;;22.30;31.19
51249;BME280;39642;47.556;18.728;2024-02-21T05:07:23;100300.56;;;22.29;31.18
51249;BME280;39642;47.556;18.728;2024-02-21T05:09:49;100297.81;;;22.30;31.49
51249;BME280;39642;47.556;18.728;2024-02-21T05:12:15;100297.75;;;22.32;31.08
51249;BME280;39642;47.556;18.728;2024-02-21T05:14:41;100304.75;;;22.33;31.12
51249;BME280;39642;47.556;18.728;2024-02-21T05:17:07;100303.91;;;22.32;31.02
51249;BME280;39642;47.556;18.728;2024-02-21T05:19:32;100302.94;;;22.33;31.12
51249;BME280;39642;47.556;18.728;2024-02-21T05:21:59;100310.03;;;22.33;31.22
51249;BME280;39642;47.556;18.728;2024-02-21T05:24:25;100319.63;;;22.35;31.35
51249;BME280;39642;47.556;18.728;2024-02-21T05:26:51;100316.88;;;22.37;31.20
51249;BME280;39642;47.556;18.728;2024-02-21T05:29:17;100312.44;;;22.37;31.26
51249;BME280;39642;47.556;18.728;2024-02-21T05:34:18;100312.34;;;22.39;31.58
51249;BME280;39642;47.556;18.728;2024-02-21T05:36:45;100313.12;;;22.41;31.69
51249;BME280;39642;47.556;18.728;2024-02-21T05:39:12;100310.47;;;22.41;31.86
51249;BME280;39642;47.556;18.728;2024-02-21T05:41:37;100308.66;;;22.41;32.15
51249;BME280;39642;47.556;18.728;2024-02-21T05:44:03;100314.06;;;22.40;32.13
51249;BME280;39642;47.556;18.728;2024-02-21T05:46:29;100309.62;;;22.40;32.75
51249;BME280;39642;47.556;18.728;2024-02-21T05:48:55;100314.75;;;22.43;34.09
51249;BME280;39642;47.556;18.728;2024-02-21T05:51:21;100318.16;;;22.45;33.33
51249;BME280;39642;47.556;18.728;2024-02-21T05:53:47;100327.81;;;22.47;33.34
51249;BME280;39642;47.556;18.728;2024-02-21T05:56:14;100319.00;;;22.46;33.31
51249;BME280;39642;47.556;18.728;2024-02-21T05:58:40;100327.03;;;22.44;33.32
51249;BME280;39642;47.556;18.728;2024-02-21T06:01:06;100331.50;;;22.44;33.43
51249;BME280;39642;47.556;18.728;2024-02-21T06:03:33;100327.22;;;22.41;33.41
51249;BME280;39642;47.556;18.728;2024-02-21T06:06:00;100330.84;;;22.40;33.21
51249;BME280;39642;47.556;18.728;2024-02-21T06:08:26;100321.16;;;22.39;33.05
51249;BME280;39642;47.556;18.728;2024-02-21T06:10:52;100326.47;;;22.39;33.05
51249;BME280;39642;47.556;18.728;2024-02-21T06:13:23;100329.13;;;22.39;33.13
51249;BME280;39642;47.556;18.728;2024-02-21T06:15:50;100328.28;;;22.39;33.03
51249;BME280;39642;47.556;18.728;2024-02-21T06:18:17;100317.59;;;22.40;33.35
51249;BME280;39642;47.556;18.728;2024-02-21T06:20:44;100324.59;;;22.41;33.29
51249;BME280;39642;47.556;18.728;2024-02-21T06:23:16;100327.22;;;22.41;33.51
51249;BME280;39642;47.556;18.728;2024-02-21T06:25:43;100327.31;;;22.40;33.88
51249;BME280;39642;47.556;18.728;2024-02-21T06:28:09;100321.16;;;22.39;33.78
51249;BME280;39642;47.556;18.728;2024-02-21T06:30:36;100332.63;;;22.40;34.77
51249;BME280;39642;47.556;18.728;2024-02-21T06:33:02;100337.28;;;22.36;33.76
51249;BME280;39642;47.556;18.728;2024-02-21T06:35:29;100343.34;;;22.38;33.79
51249;BME280;39642;47.556;18.728;2024-02-21T06:37:55;100337.09;;;22.39;33.30
51249;BME280;39642;47.556;18.728;2024-02-21T06:40:22;100342.31;;;22.41;32.95
51249;BME280;39642;47.556;18.728;2024-02-21T06:42:49;100335.19;;;22.41;33.09
51249;BME280;39642;47.556;18.728;2024-02-21T06:45:16;100351.19;;;22.40;33.03
51249;BME280;39642;47.556;18.728;2024-02-21T06:47:43;100357.38;;;22.40;32.74
51249;BME280;39642;47.556;18.728;2024-02-21T06:50:09;100362.50;;;22.43;33.19
51249;BME280;39642;47.556;18.728;2024-02-21T06:52:36;100359.06;;;22.41;33.12
51249;BME280;39642;47.556;18.728;2024-02-21T06:55:03;100368.00;;;22.40;32.79
51249;BME280;39642;47.556;18.728;2024-02-21T06:57:29;100369.50;;;22.44;33.57
51249;BME280;39642;47.556;18.728;2024-02-21T06:59:56;100363.94;;;22.49;32.97
51249;BME280;39642;47.556;18.728;2024-02-21T07:02:22;100369.94;;;22.53;32.42
51249;BME280;39642;47.556;18.728;2024-02-21T07:04:49;100370.62;;;22.56;32.84
51249;BME280;39642;47.556;18.728;2024-02-21T07:07:16;100365.13;;;22.59;32.51
51249;BME280;39642;47.556;18.728;2024-02-21T07:09:42;100367.84;;;22.58;32.57
51249;BME280;39642;47.556;18.728;2024-02-21T07:12:08;100365.03;;;22.61;32.39
51249;BME280;39642;47.556;18.728;2024-02-21T07:14:36;100372.13;;;22.60;31.99
51249;BME280;39642;47.556;18.728;2024-02-21T07:17:02;100373.84;;;22.61;32.64
51249;BME280;39642;47.556;18.728;2024-02-21T07:19:29;100370.25;;;22.62;32.59
51249;BME280;39642;47.556;18.728;2024-02-21T07:21:56;100371.12;;;22.63;32.24
51249;BME280;39642;47.556;18.728;2024-02-21T07:24:24;100375.56;;;22.62;32.05
51249;BME280;39642;47.556;18.728;2024-02-21T07:26:51;100367.69;;;22.61;31.87
51249;BME280;39642;47.556;18.728;2024-02-21T07:29:19;100366.81;;;22.60;31.92
51249;BME280;39642;47.556;18.728;2024-02-21T07:31:45;100367.78;;;22.59;32.12
51249;BME280;39642;47.556;18.728;2024-02-21T07:34:11;100371.28;;;22.60;32.10
51249;BME280;39642;47.556;18.728;2024-02-21T07:36:37;100373.00;;;22.61;32.02
51249;BME280;39642;47.556;18.728;2024-02-21T07:39:04;100371.28;;;22.60;31.97
51249;BME280;39642;47.556;18.728;2024-02-21T07:41:30;100372.13;;;22.60;32.02
51249;BME280;39642;47.556;18.728;2024-02-21T07:43:57;100368.63;;;22.60;31.90
51249;BME280;39642;47.556;18.728;2024-02-21T07:46:23;100367.59;;;22.62;31.96
51249;BME280;39642;47.556;18.728;2024-02-21T07:48:48;100370.16;;;22.64;31.93
51249;BME280;39642;47.556;18.728;2024-02-21T07:51:15;100368.34;;;22.64;31.90
51249;BME280;39642;47.556;18.728;2024-02-21T07:53:44;100362.97;;;22.66;32.14
51249;BME280;39642;47.556;18.728;2024-02-21T07:56:12;100363.88;;;22.65;32.08
51249;BME280;39642;47.556;18.728;2024-02-21T07:58:38;100361.34;;;22.63;32.38
51249;BME280;39642;47.556;18.728;2024-02-21T08:01:05;100349.00;;;22.62;32.65
51249;BME280;39642;47.556;18.728;2024-02-21T08:03:31;100349.97;;;22.61;32.59
51249;BME280;39642;47.556;18.728;2024-02-21T08:05:57;100344.75;;;22.60;32.66
51249;BME280;39642;47.556;18.728;2024-02-21T08:08:24;100345.50;;;22.62;32.88
51249;BME280;39642;47.556;18.728;2024-02-21T08:10:51;100342.84;;;22.62;33.01
51249;BME280;39642;47.556;18.728;2024-02-21T08:13:17;100338.50;;;22.61;33.18
51249;BME280;39642;47.556;18.728;2024-02-21T08:15:44;100346.47;;;22.61;32.89
51249;BME280;39642;47.556;18.728;2024-02-21T08:18:10;100347.38;;;22.60;32.80
51249;BME280;39642;47.556;18.728;2024-02-21T08:20:36;100346.63;;;22.58;32.58
51249;BME280;39642;47.556;18.728;2024-02-21T08:23:02;100349.47;;;22.55;32.63
51249;BME280;39642;47.556;18.728;2024-02-21T08:25:29;100356.59;;;22.54;32.34
51249;BME280;39642;47.556;18.728;2024-02-21T08:27:58;100353.81;;;22.56;32.34
51249;BME280;39642;47.556;18.728;2024-02-21T08:30:24;100360.84;;;22.57;32.04
51249;BME280;39642;47.556;18.728;2024-02-21T08:32:54;100354.59;;;22.58;32.26
51249;BME280;39642;47.556;18.728;2024-02-21T08:35:20;100354.50;;;22.59;32.08
51249;BME280;39642;47.556;18.728;2024-02-21T08:37:50;100353.47;;;22.62;32.01
51249;BME280;39642;47.556;18.728;2024-02-21T08:40:16;100348.16;;;22.62;32.57
51249;BME280;39642;47.556;18.728;2024-02-21T08:42:47;100347.88;;;22.66;32.23
51249;BME280;39642;47.556;18.728;2024-02-21T08:45:15;100348.72;;;22.67;32.19
51249;BME280;39642;47.556;18.728;2024-02-21T08:47:44;100352.53;;;22.63;31.87
51249;BME280;39642;47.556;18.728;2024-02-21T08:50:11;100347.66;;;22.55;31.69
51249;BME280;39642;47.556;18.728;2024-02-21T08:52:39;100337.88;;;22.56;31.66
51249;BME280;39642;47.556;18.728;2024-02-21T08:55:06;100339.97;;;22.51;31.64
51249;BME280;39642;47.556;18.728;2024-02-21T08:57:32;100340.72;;;22.53;32.06
51249;BME280;39642;47.556;18.728;2024-02-21T09:00:06;100344.34;;;22.52;31.94
51249;BME280;39642;47.556;18.728;2024-02-21T09:02:40;100342.53;;;22.52;31.34
51249;BME280;39642;47.556;18.728;2024-02-21T09:05:09;100339.28;;;22.47;31.05
51249;BME280;39642;47.556;18.728;2024-02-21T09:07:35;100342.63;;;22.51;31.80
51249;BME280;39642;47.556;18.728;2024-02-21T09:10:02;100338.09;;;22.53;32.46
51249;BME280;39642;47.556;18.728;2024-02-21T09:12:29;100344.06;;;22.56;32.74
51249;BME280;39642;47.556;18.728;2024-02-21T09:14:55;100336.78;;;22.60;33.04
51249;BME280;39642;47.556;18.728;2024-02-21T09:17:21;100349.13;;;22.61;33.14
51249;BME280;39642;47.556;18.728;2024-02-21T09:19:48;100335.84;;;22.61;34.07
51249;BME280;39642;47.556;18.728;2024-02-21T09:22:14;100336.63;;;22.63;34.24
51249;BME280;39642;47.556;18.728;2024-02-21T09:24:40;100328.81;;;22.60;34.11
51249;BME280;39642;47.556;18.728;2024-02-21T09:27:07;100326.34;;;22.57;34.05
51249;BME280;39642;47.556;18.728;2024-02-21T09:29:33;100324.53;;;22.57;33.73
51249;BME280;39642;47.556;18.728;2024-02-21T09:31:59;100333.47;;;22.56;33.80
51249;BME280;39642;47.556;18.728;2024-02-21T09:34:26;100331.72;;;22.55;33.75
51249;BME280;39642;47.556;18.728;2024-02-21T09:36:56;100326.44;;;22.55;33.30
51249;BME280;39642;47.556;18.728;2024-02-21T09:39:22;100323.84;;;22.54;31.90
51249;BME280;39642;47.556;18.728;2024-02-21T09:41:59;100324.25;;;22.48;31.50
51249;BME280;39642;47.556;18.728;2024-02-21T09:44:35;100323.34;;;22.47;31.33
51249;BME280;39642;47.556;18.728;2024-02-21T09:47:03;100322.34;;;22.50;32.23
51249;BME280;39642;47.556;18.728;2024-02-21T09:49:33;100320.81;;;22.45;32.70
51249;BME280;39642;47.556;18.728;2024-02-21T09:52:02;100318.31;;;22.42;32.02
51249;BME280;39642;47.556;18.728;2024-02-21T09:54:35;100323.62;;;22.42;32.32
51249;BME280;39642;47.556;18.728;2024-02-21T09:57:04;100327.00;;;22.30;32.06
51249;BME280;39642;47.556;18.728;2024-02-21T09:59:33;100337.09;;;22.23;32.03
51249;BME280;39642;47.556;18.728;2024-02-21T10:02:02;100331.03;;;22.21;32.76
51249;BME280;39642;47.556;18.728;2024-02-21T10:04:29;100331.47;;;22.30;33.79
51249;BME280;39642;47.556;18.728;2024-02-21T10:06:56;100330.69;;;22.28;32.52
51249;BME280;39642;47.556;18.728;2024-02-21T10:09:24;100330.00;;;22.24;33.32
51249;BME280;39642;47.556;18.728;2024-02-21T10:11:54;100316.56;;;22.27;34.51
51249;BME280;39642;47.556;18.728;2024-02-21T10:14:20;100318.97;;;22.32;33.81
51249;BME280;39642;47.556;18.728;2024-02-21T10:16:57;100317.50;;;22.26;30.90
51249;BME280;39642;47.556;18.728;2024-02-21T10:19:26;100315.03;;;22.23;31.11
51249;BME280;39642;47.556;18.728;2024-02-21T10:22:01;100313.22;;;22.23;31.85
51249;BME280;39642;47.556;18.728;2024-02-21T10:24:30;100309.53;;;22.26;32.77
51249;BME280;39642;47.556;18.728;2024-02-21T10:27:06;100308.50;;;22.29;31.89
51249;BME280;39642;47.556;18.728;2024-02-21T10:29:40;100312.88;;;22.30;32.38
51249;BME280;39642;47.556;18.728;2024-02-21T10:32:07;100304.75;;;22.33;34.16
51249;BME280;39642;47.556;18.728;2024-02-21T10:34:34;100298.41;;;22.35;32.21
51249;BME280;39642;47.556;18.728;2024-02-21T10:37:08;100298.66;;;22.31;30.83
51249;BME280;39642;47.556;18.728;2024-02-21T10:39:41;100296.88;;;22.31;32.87
51249;BME280;39642;47.556;18.728;2024-02-21T10:42:10;100283.97;;;22.25;30.68
51249;BME280;39642;47.556;18.728;2024-02-21T10:44:37;100280.44;;;22.24;31.62
51249;BME280;39642;47.556;18.728;2024-02-21T10:47:08;100278.03;;;22.20;30.85
51249;BME280;39642;47.556;18.728;2024-02-21T10:49:41;100282.66;;;22.16;30.97
51249;BME280;39642;47.556;18.728;2024-02-21T10:56:00;100270.78;;;22.08;31.89
51249;BME280;39642;47.556;18.728;2024-02-21T10:58:30;100256.31;;;22.13;32.65
51249;BME280;39642;47.556;18.728;2024-02-21T11:00:56;100253.31;;;22.19;32.76
51249;BME280;39642;47.556;18.728;2024-02-21T11:03:22;100250.34;;;22.26;33.00
51249;BME280;39642;47.556;18.728;2024-02-21T11:05:49;100253.50;;;22.32;32.35
51249;BME280;39642;47.556;18.728;2024-02-21T11:08:15;100239.94;;;22.37;32.45
51249;BME280;39642;47.556;18.728;2024-02-21T11:10:45;100232.56;;;22.42;32.57
51249;BME280;39642;47.556;18.728;2024-02-21T11:13:12;100235.06;;;22.45;32.61
51249;BME280;39642;47.556;18.728;2024-02-21T11:15:39;100230.59;;;22.45;32.56
51249;BME280;39642;47.556;18.728;2024-02-21T11:18:05;100222.50;;;22.47;32.52
51249;BME280;39642;47.556;18.728;2024-02-21T11:20:35;100225.28;;;22.45;31.84
51249;BME280;39642;47.556;18.728;2024-02-21T11:23:02;100225.16;;;22.47;31.95
51249;BME280;39642;47.556;18.728;2024-02-21T11:25:28;100223.28;;;22.49;32.37
51249;BME280;39642;47.556;18.728;2024-02-21T11:28:02;100216.19;;;22.50;31.73
51249;BME280;39642;47.556;18.728;2024-02-21T11:30:35;100213.06;;;22.43;31.03
51249;BME280;39642;47.556;18.728;2024-02-21T11:33:02;100212.38;;;22.39;32.51
51249;BME280;39642;47.556;18.728;2024-02-21T11:35:32;100208.09;;;22.37;31.41
51249;BME280;39642;47.556;18.728;2024-02-21T11:38:12;100201.47;;;22.30;30.91
51249;BME280;39642;47.556;18.728;2024-02-21T11:40:44;100192.81;;;22.26;31.81
51249;BME280;39642;47.556;18.728;2024-02-21T11:43:10;100195.56;;;22.24;31.79
51249;BME280;39642;47.556;18.728;2024-02-21T11:45:36;100191.97;;;22.26;31.43
51249;BME280;39642;47.556;18.728;2024-02-21T11:48:03;100198.81;;;22.30;31.08
51249;BME280;39642;47.556;18.728;2024-02-21T11:50:31;100199.59;;;22.32;31.54
51249;BME280;39642;47.556;18.728;2024-02-21T11:52:57;100205.94;;;22.29;31.49
51249;BME280;39642;47.556;18.728;2024-02-21T11:55:23;100193.50;;;22.30;31.75
51249;BME280;39642;47.556;18.728;2024-02-21T11:57:49;100192.66;;;22.29;31.34
51249;BME280;39642;47.556;18.728;2024-02-21T12:00:17;100196.25;;;22.28;31.07
51249;BME280;39642;47.556;18.728;2024-02-21T12:02:43;100185.81;;;22.25;31.14
51249;BME280;39642;47.556;18.728;2024-02-21T12:05:11;100185.13;;;22.21;30.95
51249;BME280;39642;47.556;18.728;2024-02-21T12:07:37;100187.19;;;22.16;30.43
51249;BME280;39642;47.556;18.728;2024-02-21T12:10:09;100186.78;;;22.08;30.21
51249;BME280;39642;47.556;18.728;2024-02-21T12:12:37;100196.87;;;22.01;29.88
51249;BME280;39642;47.556;18.728;2024-02-21T12:15:08;100184.75;;;21.97;30.33
51249;BME280;39642;47.556;18.728;2024-02-21T12:17:35;100188.16;;;21.99;31.04
51249;BME280;39642;47.556;18.728;2024-02-21T12:20:04;100182.87;;;21.99;30.28
51249;BME280;39642;47.556;18.728;2024-02-21T12:22:52;100189.87;;;22.00;30.13
51249;BME280;39642;47.556;18.728;2024-02-21T12:25:21;100190.06;;;21.97;29.84
51249;BME280;39642;47.556;18.728;2024-02-21T12:28:10;100186.56;;;21.97;29.77
51249;BME280;39642;47.556;18.728;2024-02-21T12:30:37;100181.44;;;21.94;29.63
51249;BME280;39642;47.556;18.728;2024-02-21T12:33:05;100188.81;;;21.89;29.96
51249;BME280;39642;47.556;18.728;2024-02-21T12:35:31;100183.50;;;21.89;30.17
51249;BME280;39642;47.556;18.728;2024-02-21T12:37:58;100178.78;;;21.94;30.34
51249;BME280;39642;47.556;18.728;2024-02-21T12:40:25;100178.72;;;21.95;30.93
51249;BME280;39642;47.556;18.728;2024-02-21T12:43:01;100174.34;;;21.94;30.21
51249;BME280;39642;47.556;18.728;2024-02-21T12:45:30;100168.75;;;21.99;30.79
51249;BME280;39642;47.556;18.728;2024-02-21T12:47:56;100169.44;;;22.02;30.28